createdAt,value
2023-02-06T00:00:28.358Z,1.60
2023-02-06T00:02:57.899Z,1.56
2023-02-06T00:05:27.447Z,1.85
2023-02-06T00:07:59.788Z,1.82
2023-02-06T00:10:29.507Z,1.94
2023-02-06T00:12:59.511Z,1.87
2023-02-06T00:15:29.296Z,1.90
2023-02-06T00:17:58.804Z,1.92
2023-02-06T00:20:28.354Z,1.81
2023-02-06T00:23:00.478Z,1.97
2023-02-06T00:25:30.000Z,1.91
2023-02-06T00:27:59.558Z,2.07
2023-02-06T00:30:29.299Z,2.23
2023-02-06T00:32:58.845Z,2.04
2023-02-06T00:35:28.552Z,2.03
2023-02-06T00:38:02.524Z,2.15
2023-02-06T00:40:32.522Z,1.80
2023-02-06T00:43:02.600Z,2.05
2023-02-06T00:45:32.251Z,1.92
2023-02-06T00:48:01.866Z,1.71
2023-02-06T00:50:32.981Z,1.96
2023-02-06T00:53:05.397Z,1.92
2023-02-06T00:55:35.246Z,2.12
2023-02-06T00:58:06.140Z,1.98
2023-02-06T01:00:35.734Z,2.07
2023-02-06T01:03:05.340Z,1.97
2023-02-06T01:05:35.275Z,1.94
2023-02-06T01:08:07.638Z,2.04
2023-02-06T01:10:37.396Z,2.23
2023-02-06T01:13:06.945Z,2.27
2023-02-06T01:15:36.787Z,2.00
2023-02-06T01:18:07.141Z,1.89
2023-02-06T01:20:37.239Z,2.12
2023-02-06T01:23:09.663Z,2.03
2023-02-06T01:25:39.393Z,1.90
2023-02-06T01:28:08.997Z,2.02
2023-02-06T01:30:38.642Z,2.05
2023-02-06T01:33:08.200Z,1.98
2023-02-06T01:35:37.868Z,1.90
2023-02-06T01:38:10.056Z,2.11
2023-02-06T01:40:40.527Z,1.77
2023-02-06T01:43:20.131Z,1.83
2023-02-06T01:45:49.793Z,1.82
2023-02-06T01:48:23.620Z,1.69
2023-02-06T01:50:57.069Z,1.75
2023-02-06T01:53:29.967Z,1.59
2023-02-06T01:56:02.399Z,1.60
2023-02-06T01:58:36.232Z,1.59
2023-02-06T02:01:07.228Z,1.80
2023-02-06T02:03:39.887Z,1.95
2023-02-06T02:06:13.019Z,1.96
2023-02-06T02:08:47.818Z,1.73
2023-02-06T02:11:21.299Z,1.74
2023-02-06T02:13:53.682Z,1.78
2023-02-06T02:16:30.108Z,2.09
2023-02-06T02:19:16.173Z,1.91
2023-02-06T02:22:14.650Z,1.90
2023-02-06T02:25:14.213Z,2.17
2023-02-06T02:28:04.598Z,2.27
2023-02-06T02:31:08.454Z,2.26
2023-02-06T02:34:12.208Z,2.09
2023-02-06T02:36:52.054Z,1.96
2023-02-06T02:39:30.663Z,1.88
2023-02-06T02:42:09.578Z,1.90
2023-02-06T02:44:50.130Z,1.85
2023-02-06T02:47:23.840Z,1.99
2023-02-06T02:49:55.753Z,2.01
2023-02-06T02:52:27.921Z,2.08
2023-02-06T02:54:57.523Z,2.00
2023-02-06T02:57:32.406Z,2.32
2023-02-06T03:00:03.735Z,2.46
2023-02-06T03:02:38.851Z,2.18
2023-02-06T03:05:11.500Z,2.53
2023-02-06T03:07:49.703Z,2.08
2023-02-06T03:10:28.971Z,2.51
2023-02-06T03:13:06.694Z,2.48
2023-02-06T03:15:42.703Z,2.13
2023-02-06T03:18:16.064Z,2.36
2023-02-06T03:20:48.724Z,2.37
2023-02-06T03:23:25.893Z,2.57
2023-02-06T03:25:59.017Z,2.55
2023-02-06T03:28:34.221Z,2.20
2023-02-06T03:31:06.471Z,2.03
2023-02-06T03:33:42.574Z,1.95
2023-02-06T03:36:17.166Z,1.93
2023-02-06T03:38:52.238Z,1.89
2023-02-06T03:41:26.592Z,1.94
2023-02-06T03:43:57.392Z,1.80
2023-02-06T03:46:30.279Z,1.90
2023-02-06T03:49:07.329Z,1.95
2023-02-06T03:51:42.944Z,2.01
2023-02-06T03:54:20.038Z,2.13
2023-02-06T03:56:53.683Z,1.95
2023-02-06T03:59:24.047Z,1.90
2023-02-06T04:01:57.771Z,1.90
2023-02-06T04:04:31.502Z,1.82
2023-02-06T04:07:04.432Z,1.93
2023-02-06T04:09:36.567Z,1.72
2023-02-06T04:12:06.350Z,1.87
2023-02-06T04:14:37.141Z,2.10
2023-02-06T04:17:06.911Z,2.22
2023-02-06T04:19:37.210Z,2.24
2023-02-06T04:22:08.059Z,2.19
2023-02-06T04:24:41.562Z,2.23
2023-02-06T04:27:11.623Z,2.47
2023-02-06T04:29:41.151Z,2.23
2023-02-06T04:32:10.878Z,2.01
2023-02-06T04:34:41.579Z,2.38
2023-02-06T04:37:12.673Z,2.08
2023-02-06T04:39:44.850Z,2.19
2023-02-06T04:42:14.390Z,2.26
2023-02-06T04:44:45.400Z,2.21
2023-02-06T04:47:15.182Z,2.07
2023-02-06T04:49:44.713Z,2.15
2023-02-06T04:52:14.294Z,1.91
2023-02-06T04:54:46.499Z,2.10
2023-02-06T04:57:16.063Z,2.14
2023-02-06T04:59:45.620Z,2.12
2023-02-06T05:02:15.294Z,1.72
2023-02-06T05:04:44.879Z,1.66
2023-02-06T05:07:14.444Z,1.95
2023-02-06T05:09:46.594Z,1.97
2023-02-06T05:12:16.178Z,1.83
2023-02-06T05:14:45.707Z,1.38
2023-02-06T05:17:15.262Z,1.59
2023-02-06T05:19:45.094Z,1.70
2023-02-06T05:22:14.637Z,1.64
2023-02-06T05:24:46.830Z,1.61
2023-02-06T05:27:16.574Z,1.44
2023-02-06T05:29:46.172Z,1.53
2023-02-06T05:32:15.723Z,1.44
2023-02-06T05:34:45.294Z,1.50
2023-02-06T05:37:15.117Z,1.36
2023-02-06T05:39:47.528Z,1.56
2023-02-06T05:42:17.043Z,1.53
2023-02-06T05:44:46.599Z,1.68
2023-02-06T05:47:16.587Z,1.51
2023-02-06T05:49:48.322Z,1.49
2023-02-06T05:52:17.987Z,1.53
2023-02-06T05:54:50.185Z,1.49
2023-02-06T05:57:20.191Z,1.38
2023-02-06T05:59:49.761Z,1.27
2023-02-06T06:02:19.752Z,1.44
2023-02-06T06:04:49.343Z,1.38
2023-02-06T06:07:18.983Z,1.53
2023-02-06T06:09:51.160Z,1.53
2023-02-06T06:12:20.691Z,1.52
2023-02-06T06:14:50.298Z,1.52
2023-02-06T06:17:22.492Z,1.46
2023-02-06T06:19:52.069Z,1.42
2023-02-06T06:22:21.649Z,1.12
2023-02-06T06:24:53.764Z,1.37
2023-02-06T06:27:23.334Z,1.56
2023-02-06T06:29:52.919Z,1.51
2023-02-06T06:32:22.616Z,1.69
2023-02-06T06:34:52.132Z,1.65
2023-02-06T06:37:21.633Z,1.77
2023-02-06T06:39:53.803Z,1.62
2023-02-06T06:42:23.366Z,1.41
2023-02-06T06:44:53.054Z,1.36
2023-02-06T06:47:22.589Z,1.44
2023-02-06T06:49:52.403Z,1.47
2023-02-06T06:52:25.236Z,1.60
2023-02-06T06:54:57.856Z,1.76
2023-02-06T06:57:27.490Z,1.78
2023-02-06T06:59:57.016Z,1.69
2023-02-06T07:02:28.562Z,1.61
2023-02-06T07:05:00.487Z,1.58
2023-02-06T07:07:30.410Z,1.56
2023-02-06T07:10:02.932Z,1.70
2023-02-06T07:12:32.450Z,1.77
2023-02-06T07:15:02.145Z,1.73
2023-02-06T07:17:31.723Z,1.72
2023-02-06T07:20:01.492Z,1.91
2023-02-06T07:22:31.180Z,1.96
2023-02-06T07:25:03.333Z,1.96
2023-02-06T07:27:33.025Z,1.73
2023-02-06T07:30:04.017Z,1.71
2023-02-06T07:32:37.442Z,1.81
2023-02-06T07:35:08.251Z,1.95
2023-02-06T07:37:37.805Z,2.05
2023-02-06T07:40:10.740Z,1.99
2023-02-06T07:42:40.481Z,1.87
2023-02-06T07:45:18.240Z,1.85
2023-02-06T07:47:48.078Z,1.99
2023-02-06T07:50:17.666Z,1.81
2023-02-06T07:52:47.250Z,2.02
2023-02-06T07:55:19.757Z,2.05
2023-02-06T07:57:49.342Z,2.12
2023-02-06T08:00:20.019Z,2.23
2023-02-06T08:02:49.679Z,1.83
2023-02-06T08:05:19.316Z,1.74
2023-02-06T08:07:48.868Z,1.96
2023-02-06T08:10:21.215Z,1.73
2023-02-06T08:12:50.953Z,1.75
2023-02-06T08:15:20.830Z,1.67
2023-02-06T08:17:50.494Z,1.56
2023-02-06T08:20:20.347Z,1.85
2023-02-06T08:22:49.864Z,1.71
2023-02-06T08:25:22.047Z,1.85
2023-02-06T08:27:55.680Z,1.61
2023-02-06T08:30:25.634Z,1.44
2023-02-06T08:32:55.277Z,1.51
2023-02-06T08:35:24.882Z,1.48
2023-02-06T08:37:54.753Z,1.74
2023-02-06T08:40:27.256Z,1.51
2023-02-06T08:42:56.900Z,1.57
2023-02-06T08:45:26.435Z,1.74
2023-02-06T08:47:55.959Z,1.49
2023-02-06T08:50:25.536Z,1.48
2023-02-06T08:52:55.054Z,1.86
2023-02-06T08:55:27.191Z,1.88
2023-02-06T08:57:56.719Z,1.80
2023-02-06T09:00:26.473Z,2.04
2023-02-06T09:02:56.970Z,2.23
2023-02-06T09:05:27.005Z,1.91
2023-02-06T09:07:56.680Z,1.99
2023-02-06T09:10:28.778Z,2.21
2023-02-06T09:12:58.436Z,2.07
2023-02-06T09:15:28.009Z,2.24
2023-02-06T09:17:57.695Z,2.18
2023-02-06T09:20:27.953Z,2.11
2023-02-06T09:22:57.551Z,1.85
2023-02-06T09:25:30.113Z,2.32
2023-02-06T09:27:59.684Z,2.16
2023-02-06T09:30:29.310Z,2.14
2023-02-06T09:32:58.855Z,2.31
2023-02-06T09:35:28.354Z,2.15
2023-02-06T09:37:57.989Z,2.37
2023-02-06T09:40:33.262Z,2.40
2023-02-06T09:43:04.363Z,2.52
2023-02-06T09:45:35.877Z,2.15
2023-02-06T09:48:19.285Z,2.57
2023-02-06T09:50:57.942Z,2.48
2023-02-06T09:53:33.639Z,2.39
2023-02-06T09:56:12.649Z,2.21
2023-02-06T09:58:47.248Z,2.32
2023-02-06T10:01:23.276Z,2.34
2023-02-06T10:04:14.641Z,2.11
2023-02-06T10:06:51.869Z,1.96
2023-02-06T10:09:24.807Z,2.16
2023-02-06T10:12:00.702Z,2.14
2023-02-06T10:14:41.193Z,2.22
2023-02-06T10:17:20.453Z,2.32
2023-02-06T10:19:54.878Z,1.80
2023-02-06T10:22:30.782Z,2.03
2023-02-06T10:25:21.523Z,2.28
2023-02-06T10:27:57.308Z,2.06
2023-02-06T10:30:38.807Z,2.23
2023-02-06T10:33:25.318Z,2.07
2023-02-06T10:36:04.315Z,2.50
2023-02-06T10:38:59.007Z,2.41
2023-02-06T10:41:39.646Z,2.06
2023-02-06T10:44:22.527Z,1.98
2023-02-06T10:46:56.816Z,1.81
2023-02-06T10:49:31.779Z,1.95
2023-02-06T10:52:03.453Z,2.09
2023-02-06T10:54:37.419Z,2.29
2023-02-06T10:57:16.722Z,2.27
2023-02-06T10:59:53.655Z,2.14
2023-02-06T11:02:27.132Z,2.14
2023-02-06T11:05:03.010Z,2.05
2023-02-06T11:07:35.400Z,2.31
2023-02-06T11:10:05.176Z,2.28
2023-02-06T11:12:38.755Z,2.35
2023-02-06T11:15:24.882Z,2.29
2023-02-06T11:17:54.721Z,2.33
2023-02-06T11:20:28.283Z,2.08
2023-02-06T11:22:58.073Z,2.61
2023-02-06T11:25:31.314Z,2.40
2023-02-06T11:28:02.366Z,2.23
2023-02-06T11:30:42.588Z,2.15
2023-02-06T11:33:23.196Z,2.17
2023-02-06T11:35:59.133Z,2.11
2023-02-06T11:38:30.976Z,2.33
2023-02-06T11:41:03.323Z,2.25
2023-02-06T11:43:35.117Z,2.31
2023-02-06T11:46:16.903Z,2.58
2023-02-06T11:48:49.944Z,2.49
2023-02-06T11:51:19.483Z,2.23
2023-02-06T11:54:00.520Z,2.34
2023-02-06T11:56:31.851Z,2.15
2023-02-06T11:59:08.163Z,2.22
2023-02-06T12:01:46.960Z,2.38
2023-02-06T12:04:24.779Z,2.40
2023-02-06T12:07:01.326Z,2.20
2023-02-06T12:09:31.378Z,2.07
2023-02-06T12:12:06.110Z,1.76
2023-02-06T12:14:41.026Z,2.14
2023-02-06T12:17:26.772Z,2.33
2023-02-06T12:20:04.064Z,2.01
2023-02-06T12:22:39.408Z,2.40
2023-02-06T12:25:24.511Z,2.27
2023-02-06T12:27:55.929Z,2.19
2023-02-06T12:30:34.579Z,2.03
2023-02-06T12:33:14.841Z,2.13
2023-02-06T12:35:48.256Z,1.37
2023-02-06T12:38:25.692Z,1.56
2023-02-06T12:41:08.196Z,1.40
2023-02-06T12:43:40.698Z,1.52
2023-02-06T12:46:15.337Z,1.65
2023-02-06T12:48:52.448Z,2.02
2023-02-06T12:51:28.101Z,1.58
2023-02-06T12:54:01.521Z,1.92
2023-02-06T12:56:36.822Z,1.71
2023-02-06T12:59:22.821Z,2.11
2023-02-06T13:02:00.576Z,1.76
2023-02-06T13:04:36.446Z,2.48
2023-02-06T13:07:09.901Z,1.97
2023-02-06T13:09:43.459Z,2.10
2023-02-06T13:12:16.708Z,2.36
2023-02-06T13:14:50.458Z,2.35
2023-02-06T13:17:24.091Z,1.98
2023-02-06T13:20:04.548Z,2.72
2023-02-06T13:22:45.964Z,2.68
2023-02-06T13:25:45.459Z,2.93
2023-02-06T13:28:48.124Z,2.84
2023-02-06T13:31:27.654Z,2.31
2023-02-06T13:34:00.440Z,2.53
2023-02-06T13:36:52.005Z,2.11
2023-02-06T13:39:32.418Z,2.52
2023-02-06T13:42:26.131Z,2.94
2023-02-06T13:44:59.184Z,2.93
2023-02-06T13:47:54.170Z,2.64
2023-02-06T13:50:48.307Z,2.63
2023-02-06T13:53:30.520Z,2.59
2023-02-06T13:56:12.164Z,2.58
2023-02-06T13:58:47.703Z,2.72
2023-02-06T14:01:23.516Z,2.83
2023-02-06T14:03:53.844Z,2.98
2023-02-06T14:06:38.288Z,2.78
2023-02-06T14:09:34.474Z,3.09
2023-02-06T14:12:27.000Z,3.27
2023-02-06T14:15:10.064Z,3.00
2023-02-06T14:17:57.879Z,2.93
2023-02-06T14:20:36.268Z,3.19
2023-02-06T14:23:17.356Z,3.26
2023-02-06T14:26:01.856Z,3.08
2023-02-06T14:28:40.926Z,3.27
2023-02-06T14:31:21.723Z,3.08
2023-02-06T14:34:07.298Z,3.26
2023-02-06T14:36:52.202Z,3.06
2023-02-06T14:39:38.963Z,2.25
2023-02-06T14:42:10.680Z,1.77
2023-02-06T14:44:40.409Z,1.95
2023-02-06T14:47:19.365Z,2.25
2023-02-06T14:49:52.613Z,2.76
2023-02-06T14:52:25.217Z,2.32
2023-02-06T14:54:55.463Z,1.74
2023-02-06T14:57:27.476Z,2.06
2023-02-06T14:59:59.790Z,2.14
2023-02-06T15:02:32.296Z,2.14
2023-02-06T15:05:07.498Z,1.97
2023-02-06T15:07:39.162Z,2.16
2023-02-06T15:10:11.550Z,2.19
2023-02-06T15:12:41.282Z,2.47
2023-02-06T15:15:20.350Z,2.19
2023-02-06T15:17:59.519Z,2.75
2023-02-06T15:20:36.373Z,3.10
2023-02-06T15:23:17.851Z,2.20
2023-02-06T15:26:01.835Z,2.13
2023-02-06T15:28:33.858Z,1.94
2023-02-06T15:31:04.364Z,2.68
2023-02-06T15:33:36.336Z,2.16
2023-02-06T15:36:09.259Z,2.02
2023-02-06T15:38:39.939Z,2.36
2023-02-06T15:41:11.161Z,2.51
2023-02-06T15:43:41.050Z,2.24
2023-02-06T15:46:10.890Z,2.24
2023-02-06T15:48:43.758Z,2.61
2023-02-06T15:51:25.680Z,2.26
2023-02-06T15:54:10.664Z,1.70
2023-02-06T15:56:44.432Z,2.05
2023-02-06T15:59:20.494Z,1.90
2023-02-06T16:01:51.401Z,1.70
2023-02-06T16:04:25.829Z,2.05
2023-02-06T16:07:09.547Z,2.15
2023-02-06T16:09:43.921Z,1.78
2023-02-06T16:12:13.857Z,1.66
2023-02-06T16:14:53.441Z,1.85
2023-02-06T16:17:29.341Z,1.73
2023-02-06T16:20:02.374Z,1.79
2023-02-06T16:22:37.897Z,1.65
2023-02-06T16:25:25.849Z,1.96
2023-02-06T16:27:56.002Z,1.34
2023-02-06T16:30:29.561Z,1.40
2023-02-06T16:33:00.806Z,1.67
2023-02-06T16:35:30.391Z,1.34
2023-02-06T16:38:02.711Z,1.42
2023-02-06T16:40:32.338Z,1.57
2023-02-06T16:43:03.179Z,1.46
2023-02-06T16:45:32.811Z,1.65
2023-02-06T16:48:02.421Z,1.49
2023-02-06T16:50:31.958Z,1.68
2023-02-06T16:53:05.396Z,1.50
2023-02-06T16:55:36.195Z,1.64
2023-02-06T16:58:06.126Z,1.67
2023-02-06T17:00:36.386Z,1.63
2023-02-06T17:03:06.543Z,1.69
2023-02-06T17:05:38.558Z,1.50
2023-02-06T17:08:16.407Z,1.58
2023-02-06T17:10:46.820Z,1.70
2023-02-06T17:13:17.850Z,1.63
2023-02-06T17:15:48.109Z,2.21
2023-02-06T17:18:20.106Z,2.44
2023-02-06T17:20:52.816Z,2.35
2023-02-06T17:23:25.547Z,2.34
2023-02-06T17:25:55.145Z,2.17
2023-02-06T17:28:24.671Z,2.59
2023-02-06T17:30:54.260Z,2.49
2023-02-06T17:33:23.884Z,2.40
2023-02-06T17:35:53.464Z,2.69
2023-02-06T17:38:25.639Z,2.49
2023-02-06T17:40:56.142Z,3.13
2023-02-06T17:43:25.692Z,2.00
2023-02-06T17:45:55.258Z,2.64
2023-02-06T17:48:24.813Z,2.33
2023-02-06T17:50:54.326Z,2.49
2023-02-06T17:53:26.506Z,2.99
2023-02-06T17:55:56.305Z,3.21
2023-02-06T17:58:26.400Z,2.46
2023-02-06T18:00:56.221Z,2.61
2023-02-06T18:03:28.417Z,1.67
2023-02-06T18:06:01.215Z,1.47
2023-02-06T18:08:33.424Z,1.84
2023-02-06T18:11:03.273Z,2.05
2023-02-06T18:13:32.780Z,1.99
2023-02-06T18:16:02.463Z,1.92
2023-02-06T18:18:32.303Z,1.15
2023-02-06T18:21:02.425Z,1.18
2023-02-06T18:23:34.656Z,1.41
2023-02-06T18:26:05.243Z,1.23
2023-02-06T18:28:36.388Z,1.26
2023-02-06T18:31:06.630Z,1.05
2023-02-06T18:33:37.469Z,1.04
2023-02-06T18:36:08.165Z,1.14
2023-02-06T18:38:43.012Z,1.10
2023-02-06T18:41:32.988Z,0.75
2023-02-06T18:44:01.259Z,0.35
2023-02-06T18:46:30.998Z,0.46
2023-02-06T18:49:00.832Z,0.15
2023-02-06T18:51:31.706Z,-0.02
2023-02-06T18:54:04.422Z,0.00
2023-02-06T18:56:34.045Z,-0.11
2023-02-06T18:59:04.018Z,-0.12
2023-02-06T19:01:34.436Z,0.02
2023-02-06T19:04:04.109Z,-0.04
2023-02-06T19:06:36.616Z,-0.15
2023-02-06T19:09:09.560Z,0.14
2023-02-06T19:11:39.885Z,-0.03
2023-02-06T19:14:11.037Z,-0.01
2023-02-06T19:16:44.492Z,0.04
2023-02-06T19:19:15.135Z,0.03
2023-02-06T19:21:45.359Z,-0.09
2023-02-06T19:24:20.666Z,-0.12
2023-02-06T19:26:50.251Z,-0.07
2023-02-06T19:29:34.816Z,-0.19
2023-02-06T19:32:05.047Z,-0.58
2023-02-06T19:34:36.333Z,-0.56
2023-02-06T19:37:06.385Z,-0.62
2023-02-06T19:39:40.396Z,-0.27
2023-02-06T19:42:15.504Z,-0.28
2023-02-06T19:44:45.803Z,-0.45
2023-02-06T19:47:15.531Z,-0.10
2023-02-06T19:49:45.281Z,-0.17
2023-02-06T19:52:14.964Z,0.12
2023-02-06T19:54:47.893Z,0.06
2023-02-06T19:57:19.436Z,-0.26
2023-02-06T19:59:48.987Z,-0.27
2023-02-06T20:02:18.751Z,-0.33
2023-02-06T20:04:48.830Z,-0.19
2023-02-06T20:07:18.495Z,-0.10
2023-02-06T20:09:51.224Z,-0.22
2023-02-06T20:12:20.840Z,-0.38
2023-02-06T20:14:50.423Z,-0.62
2023-02-06T20:17:20.041Z,-0.47
2023-02-06T20:19:49.866Z,-0.49
2023-02-06T20:22:19.462Z,-0.43
2023-02-06T20:24:51.591Z,-0.17
2023-02-06T20:27:21.143Z,-0.58
2023-02-06T20:29:51.425Z,-0.61
2023-02-06T20:32:21.159Z,-0.72
2023-02-06T20:34:50.698Z,-0.81
2023-02-06T20:37:21.513Z,-0.66
2023-02-06T20:39:53.771Z,-0.77
2023-02-06T20:42:26.214Z,-0.59
2023-02-06T20:44:55.846Z,-0.76
2023-02-06T20:47:25.408Z,-0.85
2023-02-06T20:49:54.941Z,-0.60
2023-02-06T20:52:24.510Z,-0.19
2023-02-06T20:54:56.630Z,-0.04
2023-02-06T20:57:26.260Z,-0.09
2023-02-06T20:59:56.184Z,0.20
2023-02-06T21:02:25.822Z,0.01
2023-02-06T21:04:55.446Z,0.77
2023-02-06T21:07:25.685Z,0.45
2023-02-06T21:09:57.912Z,0.47
2023-02-06T21:12:27.460Z,0.27
2023-02-06T21:14:56.973Z,0.17
2023-02-06T21:17:26.496Z,-0.02
2023-02-06T21:19:56.051Z,0.00
2023-02-06T21:22:25.578Z,-0.02
2023-02-06T21:24:57.675Z,0.07
2023-02-06T21:27:27.281Z,0.55
2023-02-06T21:29:57.036Z,0.73
2023-02-06T21:32:27.182Z,0.09
2023-02-06T21:34:56.725Z,-0.09
2023-02-06T21:37:26.784Z,-0.47
2023-02-06T21:39:58.899Z,0.15
2023-02-06T21:42:28.609Z,0.77
2023-02-06T21:44:58.195Z,0.98
2023-02-06T21:47:27.755Z,0.95
2023-02-06T21:49:57.348Z,0.57
2023-02-06T21:52:26.890Z,-0.20
2023-02-06T21:54:58.993Z,-0.21
2023-02-06T21:57:28.668Z,-0.20
2023-02-06T21:59:58.218Z,-0.24
2023-02-06T22:02:27.760Z,-0.32
2023-02-06T22:04:59.681Z,-0.04
2023-02-06T22:07:29.272Z,-0.23
2023-02-06T22:10:01.384Z,-0.04
2023-02-06T22:12:30.905Z,-0.10
2023-02-06T22:15:00.655Z,0.19
2023-02-06T22:17:32.050Z,0.01
2023-02-06T22:20:01.598Z,0.12
2023-02-06T22:22:31.161Z,0.19
2023-02-06T22:25:03.652Z,0.26
2023-02-06T22:27:35.010Z,0.05
2023-02-06T22:30:05.030Z,0.08
2023-02-06T22:32:34.718Z,0.03
2023-02-06T22:35:04.234Z,-0.18
2023-02-06T22:37:34.860Z,-0.15
2023-02-06T22:40:08.006Z,-0.17
2023-02-06T22:42:37.813Z,0.18
2023-02-06T22:45:08.818Z,0.10
2023-02-06T22:47:38.462Z,-0.36
2023-02-06T22:50:09.355Z,-0.86
2023-02-06T22:52:51.489Z,-0.32
2023-02-06T22:55:24.780Z,-0.31
2023-02-06T22:57:54.312Z,-0.50
2023-02-06T23:00:23.893Z,-0.83
2023-02-06T23:02:53.581Z,-0.58
2023-02-06T23:05:23.152Z,-0.51
2023-02-06T23:07:52.696Z,-0.83
2023-02-06T23:10:24.897Z,-0.91
2023-02-06T23:12:54.514Z,-1.10
2023-02-06T23:15:24.128Z,-1.20
2023-02-06T23:17:53.808Z,-1.33
2023-02-06T23:20:23.474Z,-1.39
2023-02-06T23:22:52.999Z,-1.44
2023-02-06T23:25:25.157Z,-1.37
2023-02-06T23:27:54.849Z,-1.55
2023-02-06T23:30:24.620Z,-1.37
2023-02-06T23:32:54.227Z,-1.41
2023-02-06T23:35:23.755Z,-1.76
2023-02-06T23:37:53.307Z,-1.27
2023-02-06T23:40:25.522Z,-1.27
2023-02-06T23:42:55.330Z,-1.06
2023-02-06T23:45:24.901Z,-0.42
2023-02-06T23:47:54.906Z,-0.46
2023-02-06T23:50:25.061Z,-1.72
2023-02-06T23:52:54.986Z,-1.28
2023-02-06T23:55:28.466Z,-1.85
2023-02-06T23:57:58.023Z,-2.08
